Time,TemperatureF,DewpointF,PressureIn,WindDirection,WindDirectionDegrees,WindSpeedMPH,WindSpeedGustMPH,Humidity,HourlyPrecipIn,Conditions,Clouds,dailyrainin,SoftwareType,DateUTC
2013-03-16 00:02:00,40.6,38.2,29.60,SE,127,0.0,0.0,91,0.00,,,0.11,VWS V14.01,2013-03-16 04:02:00,
2013-03-16 00:07:00,40.8,38.4,29.60,SE,127,0.0,0.0,91,0.00,,,0.00,VWS V14.01,2013-03-16 04:07:00,
2013-03-16 00:13:00,40.6,38.2,29.60,SE,127,0.0,0.0,91,0.00,,,0.00,VWS V14.01,2013-03-16 04:13:00,
2013-03-16 00:22:00,40.6,38.2,29.59,ESE,123,0.0,0.0,91,0.00,,,0.00,VWS V14.01,2013-03-16 04:22:00,
2013-03-16 00:27:00,40.8,38.4,29.59,ESE,104,0.0,0.0,91,0.00,,,0.00,VWS V14.01,2013-03-16 04:27:00,
2013-03-16 00:32:00,40.9,38.5,29.57,ENE,73,0.0,0.0,91,0.00,,,0.00,VWS V14.01,2013-03-16 04:32:00,
2013-03-16 00:37:00,41.1,38.7,29.57,ENE,73,0.0,0.0,91,0.00,,,0.00,VWS V14.01,2013-03-16 04:37:00,
2013-03-16 00:42:00,41.2,38.8,29.57,ENE,72,0.0,0.0,91,0.00,,,0.00,VWS V14.01,2013-03-16 04:42:00,
2013-03-16 00:47:00,41.2,38.8,29.55,ENE,72,0.0,0.0,91,0.00,,,0.00,VWS V14.01,2013-03-16 04:47:00,
2013-03-16 00:52:00,41.2,38.8,29.55,ENE,71,0.0,0.0,91,0.00,,,0.00,VWS V14.01,2013-03-16 04:52:00,
2013-03-16 00:57:00,41.1,38.7,29.55,ENE,69,0.0,0.0,91,0.00,,,0.00,VWS V14.01,2013-03-16 04:57:00,
2013-03-16 01:02:00,41.1,38.7,29.54,ENE,73,0.0,0.0,91,0.00,,,0.00,VWS V14.01,2013-03-16 05:02:00,
2013-03-16 01:12:00,40.9,38.5,29.54,ENE,72,0.0,0.0,91,0.00,,,0.00,VWS V14.01,2013-03-16 05:12:00,
2013-03-16 01:17:00,40.9,38.5,29.52,ENE,78,0.0,0.0,91,0.00,,,0.00,VWS V14.01,2013-03-16 05:17:00,
2013-03-16 01:22:00,40.9,38.2,29.52,ENE,78,0.0,0.0,90,0.00,,,0.00,VWS V14.01,2013-03-16 05:22:00,
2013-03-16 01:27:00,40.8,38.4,29.52,East,79,0.0,0.0,91,0.00,,,0.00,VWS V14.01,2013-03-16 05:27:00,
2013-03-16 01:32:00,40.8,38.4,29.51,East,79,0.0,0.0,91,0.00,,,0.00,VWS V14.01,2013-03-16 05:32:00,
2013-03-16 01:37:00,40.6,38.2,29.51,East,79,0.0,0.0,91,0.00,,,0.00,VWS V14.01,2013-03-16 05:37:00,
2013-03-16 01:47:00,40.5,37.8,29.51,East,79,0.0,0.0,90,0.00,,,0.00,VWS V14.01,2013-03-16 05:47:00,
2013-03-16 01:52:00,40.3,37.6,29.51,East,79,0.0,0.0,90,0.00,,,0.00,VWS V14.01,2013-03-16 05:52:00,
2013-03-16 02:02:00,39.6,36.9,29.51,East,79,0.0,0.0,90,0.00,,,0.00,VWS V14.01,2013-03-16 06:02:00,
2013-03-16 02:07:00,39.6,37.2,29.51,East,79,0.0,0.0,91,0.00,,,0.00,VWS V14.01,2013-03-16 06:07:00,
2013-03-16 02:17:00,39.1,36.7,29.52,ENE,76,0.0,0.0,91,0.00,,,0.00,VWS V14.01,2013-03-16 06:17:00,
2013-03-16 02:22:00,38.9,36.5,29.52,ENE,58,0.0,0.0,91,0.00,,,0.00,VWS V14.01,2013-03-16 06:22:00,
2013-03-16 02:27:00,38.9,36.5,29.52,ENE,58,0.0,0.0,91,0.00,,,0.00,VWS V14.01,2013-03-16 06:27:00,
2013-03-16 02:32:00,38.8,36.4,29.52,ENE,58,0.0,0.0,91,0.00,,,0.00,VWS V14.01,2013-03-16 06:32:00,
2013-03-16 02:37:00,38.8,36.4,29.52,ENE,58,0.0,0.0,91,0.00,,,0.00,VWS V14.01,2013-03-16 06:37:00,
2013-03-16 02:42:00,38.6,36.5,29.52,ENE,58,0.0,0.0,92,0.00,,,0.00,VWS V14.01,2013-03-16 06:42:00,
2013-03-16 02:47:00,38.9,36.8,29.51,ENE,58,0.0,0.0,92,0.00,,,0.00,VWS V14.01,2013-03-16 06:47:00,
2013-03-16 02:57:00,38.9,36.8,29.51,ENE,58,0.0,0.0,92,0.00,,,0.00,VWS V14.01,2013-03-16 06:57:00,
2013-03-16 03:07:00,39.1,37.0,29.51,ENE,58,0.0,0.0,92,0.00,,,0.00,VWS V14.01,2013-03-16 07:07:00,
2013-03-16 03:12:00,39.1,37.0,29.51,ENE,58,0.0,0.0,92,0.00,,,0.00,VWS V14.01,2013-03-16 07:12:00,
2013-03-16 03:17:00,39.1,37.0,29.51,ENE,58,0.0,0.0,92,0.00,,,0.00,VWS V14.01,2013-03-16 07:17:00,
2013-03-16 03:22:00,39.1,37.0,29.51,ENE,58,0.0,0.0,92,0.00,,,0.00,VWS V14.01,2013-03-16 07:22:00,
2013-03-16 03:27:00,38.9,36.8,29.51,ENE,58,0.0,0.0,92,0.00,,,0.00,VWS V14.01,2013-03-16 07:27:00,
2013-03-16 03:37:00,38.9,36.8,29.51,ENE,58,0.0,0.0,92,0.00,,,0.00,VWS V14.01,2013-03-16 07:37:00,
2013-03-16 03:42:00,38.9,36.8,29.51,ENE,58,0.0,0.0,92,0.00,,,0.00,VWS V14.01,2013-03-16 07:42:00,
2013-03-16 03:47:00,38.9,36.8,29.50,ENE,58,0.0,0.0,92,0.00,,,0.00,VWS V14.01,2013-03-16 07:47:00,
2013-03-16 03:57:00,38.8,37.0,29.50,ENE,58,0.0,0.0,93,0.00,,,0.00,VWS V14.01,2013-03-16 07:57:00,
2013-03-16 04:07:00,38.8,37.0,29.49,ENE,58,0.0,0.0,93,0.00,,,0.00,VWS V14.01,2013-03-16 08:07:00,
2013-03-16 04:12:00,38.9,37.0,29.49,ENE,58,0.0,0.0,93,0.00,,,0.00,VWS V14.01,2013-03-16 08:12:00,
2013-03-16 04:17:00,38.9,37.0,29.49,ENE,58,0.0,0.0,93,0.00,,,0.00,VWS V14.01,2013-03-16 08:17:00,
2013-03-16 04:22:00,38.9,37.0,29.49,ENE,58,0.0,0.0,93,0.00,,,0.00,VWS V14.01,2013-03-16 08:22:00,
2013-03-16 04:27:00,38.9,37.0,29.49,NE,37,0.0,0.0,93,0.00,,,0.00,VWS V14.01,2013-03-16 08:27:00,
2013-03-16 04:32:00,38.8,37.0,29.50,NE,48,0.0,0.0,93,0.00,,,0.00,VWS V14.01,2013-03-16 08:32:00,
2013-03-16 04:37:00,38.9,37.0,29.50,NE,41,0.0,0.0,93,0.00,,,0.00,VWS V14.01,2013-03-16 08:37:00,
2013-03-16 04:42:00,38.9,37.3,29.50,NE,52,0.0,0.0,94,0.00,,,0.00,VWS V14.01,2013-03-16 08:42:00,
2013-03-16 04:47:00,39.1,37.5,29.49,NE,49,0.0,0.0,94,0.00,,,0.00,VWS V14.01,2013-03-16 08:47:00,
2013-03-16 04:52:00,39.1,37.5,29.49,ENE,62,0.0,0.0,94,0.00,,,0.00,VWS V14.01,2013-03-16 08:52:00,
2013-03-16 04:57:00,39.1,37.5,29.49,ENE,62,0.0,0.0,94,0.00,,,0.00,VWS V14.01,2013-03-16 08:57:00,
2013-03-16 05:02:00,38.9,37.3,29.46,ENE,75,0.0,0.0,94,0.00,,,0.00,VWS V14.01,2013-03-16 09:02:00,
2013-03-16 05:07:00,38.8,37.2,29.46,East,82,0.0,0.0,94,0.00,,,0.00,VWS V14.01,2013-03-16 09:07:00,
2013-03-16 05:12:00,38.9,37.3,29.46,ESE,104,0.0,0.0,94,0.00,,,0.00,VWS V14.01,2013-03-16 09:12:00,
2013-03-16 05:17:00,38.8,37.2,29.44,ESE,113,0.0,0.0,94,0.00,,,0.00,VWS V14.01,2013-03-16 09:17:00,
2013-03-16 05:22:00,38.9,37.3,29.44,East,92,0.0,0.0,94,0.00,,,0.00,VWS V14.01,2013-03-16 09:22:00,
2013-03-16 05:32:00,38.8,37.2,29.43,ENE,78,0.0,0.0,94,0.00,,,0.00,VWS V14.01,2013-03-16 09:32:00,
2013-03-16 05:37:00,38.9,37.3,29.43,NNE,30,0.0,0.0,94,0.00,,,0.00,VWS V14.01,2013-03-16 09:37:00,
2013-03-16 05:47:00,39.1,37.5,29.49,NNE,28,0.0,0.0,94,0.00,,,0.00,VWS V14.01,2013-03-16 09:47:00,
2013-03-16 05:57:00,39.2,37.6,29.49,NE,49,0.0,0.0,94,0.00,,,0.00,VWS V14.01,2013-03-16 09:57:00,
2013-03-16 06:02:00,39.1,37.5,29.48,NE,51,0.0,0.0,94,0.00,,,0.00,VWS V14.01,2013-03-16 10:02:00,
2013-03-16 06:07:00,39.2,37.6,29.48,ENE,59,0.0,0.0,94,0.00,,,0.00,VWS V14.01,2013-03-16 10:07:00,
2013-03-16 06:12:00,39.2,37.9,29.48,NE,52,0.0,0.0,95,0.00,,,0.00,VWS V14.01,2013-03-16 10:12:00,
2013-03-16 06:17:00,39.2,37.6,29.50,NE,49,0.0,0.0,94,0.00,,,0.00,VWS V14.01,2013-03-16 10:17:00,
2013-03-16 06:22:00,39.3,38.0,29.50,NE,49,0.0,0.0,95,0.00,,,0.00,VWS V14.01,2013-03-16 10:22:00,
2013-03-16 06:32:00,39.5,38.2,29.50,NE,41,0.0,0.0,95,0.00,,,0.00,VWS V14.01,2013-03-16 10:32:00,
2013-03-16 06:37:00,39.5,38.2,29.50,ENE,64,0.0,0.0,95,0.00,,,0.00,VWS V14.01,2013-03-16 10:37:00,
2013-03-16 06:42:00,39.5,38.2,29.50,NE,55,0.0,0.0,95,0.00,,,0.00,VWS V14.01,2013-03-16 10:42:00,
2013-03-16 06:47:00,39.5,38.2,29.49,ENE,66,0.0,0.0,95,0.00,,,0.00,VWS V14.01,2013-03-16 10:47:00,
2013-03-16 06:57:00,39.6,38.3,29.49,East,80,0.0,0.0,95,0.00,,,0.00,VWS V14.01,2013-03-16 10:57:00,
2013-03-16 07:07:00,39.6,38.3,29.49,ENE,78,0.0,0.0,95,0.00,,,0.00,VWS V14.01,2013-03-16 11:07:00,
2013-03-16 07:12:00,39.6,38.3,29.49,ENE,76,0.0,0.0,95,0.00,,,0.00,VWS V14.01,2013-03-16 11:12:00,
2013-03-16 07:22:00,39.6,38.3,29.49,ENE,68,0.0,0.0,95,0.00,,,0.00,VWS V14.01,2013-03-16 11:22:00,
2013-03-16 07:32:00,39.6,38.3,29.51,ENE,61,0.0,0.0,95,0.00,,,0.00,VWS V14.01,2013-03-16 11:32:00,
2013-03-16 07:37:00,39.6,38.3,29.51,NE,45,0.0,0.0,95,0.00,,,0.00,VWS V14.01,2013-03-16 11:37:00,
2013-03-16 07:42:00,39.5,38.2,29.51,NE,55,0.0,0.0,95,0.00,,,0.00,VWS V14.01,2013-03-16 11:42:00,
2013-03-16 07:52:00,38.9,37.3,29.52,ENE,59,0.0,0.0,94,0.00,,,0.00,VWS V14.01,2013-03-16 11:52:00,
2013-03-16 07:57:00,38.6,37.0,29.52,ENE,66,0.0,0.0,94,0.00,,,0.00,VWS V14.01,2013-03-16 11:57:00,
2013-03-16 08:02:00,38.5,36.9,29.52,NE,56,0.0,0.0,94,0.00,,,0.00,VWS V14.01,2013-03-16 12:02:00,
2013-03-16 08:07:00,38.3,37.0,29.52,NE,56,0.0,0.0,95,0.00,,,0.00,VWS V14.01,2013-03-16 12:07:00,
2013-03-16 08:17:00,38.0,36.7,29.52,ENE,71,0.0,0.0,95,0.00,,,0.00,VWS V14.01,2013-03-16 12:17:00,
2013-03-16 08:22:00,38.0,36.7,29.52,ENE,61,0.0,0.0,95,0.00,,,0.00,VWS V14.01,2013-03-16 12:22:00,
2013-03-16 08:32:00,37.8,36.5,29.52,ENE,62,0.0,0.0,95,0.00,,,0.00,VWS V14.01,2013-03-16 12:32:00,
2013-03-16 08:37:00,37.8,36.5,29.52,ENE,72,0.0,0.0,95,0.00,,,0.00,VWS V14.01,2013-03-16 12:37:00,
2013-03-16 08:47:00,37.6,36.3,29.53,ENE,66,0.0,0.0,95,0.00,,,0.00,VWS V14.01,2013-03-16 12:47:00,
2013-03-16 08:57:00,37.3,36.0,29.53,NE,55,0.0,0.0,95,0.00,,,0.00,VWS V14.01,2013-03-16 12:57:00,
2013-03-16 09:07:00,37.2,35.9,29.54,NE,56,0.0,0.0,95,0.00,,,0.00,VWS V14.01,2013-03-16 13:07:00,
2013-03-16 09:17:00,37.2,36.2,29.55,NE,54,0.0,0.0,96,0.00,,,0.00,VWS V14.01,2013-03-16 13:17:00,
2013-03-16 09:27:00,37.2,36.2,29.55,NE,48,0.0,0.0,96,0.00,,,0.00,VWS V14.01,2013-03-16 13:27:00,
2013-03-16 09:32:00,37.0,36.0,29.55,NE,49,0.0,0.0,96,0.00,,,0.00,VWS V14.01,2013-03-16 13:32:00,
2013-03-16 09:42:00,37.0,36.0,29.55,NE,42,0.0,0.0,96,0.00,,,0.00,VWS V14.01,2013-03-16 13:42:00,
2013-03-16 09:47:00,37.0,36.0,29.56,NE,48,0.0,0.0,96,0.00,,,0.00,VWS V14.01,2013-03-16 13:47:00,
2013-03-16 09:57:00,37.0,36.0,29.56,NE,42,0.0,0.0,96,0.00,,,0.00,VWS V14.01,2013-03-16 13:57:00,
2013-03-16 10:02:00,37.0,36.0,29.57,NE,40,0.0,0.0,96,0.00,,,0.00,VWS V14.01,2013-03-16 14:02:00,
2013-03-16 10:12:00,37.2,36.2,29.57,NE,42,0.0,0.0,96,0.00,,,0.00,VWS V14.01,2013-03-16 14:12:00,
2013-03-16 10:22:00,36.9,35.9,29.57,North,6,0.0,0.0,96,0.00,,,0.00,VWS V14.01,2013-03-16 14:22:00,
2013-03-16 10:32:00,36.8,35.8,29.58,North,7,0.0,0.0,96,0.00,,,0.00,VWS V14.01,2013-03-16 14:32:00,
2013-03-16 10:37:00,36.6,35.6,29.58,NNE,28,0.0,0.0,96,0.00,,,0.00,VWS V14.01,2013-03-16 14:37:00,
2013-03-16 10:42:00,36.8,35.8,29.58,NNE,28,0.0,0.0,96,0.00,,,0.00,VWS V14.01,2013-03-16 14:42:00,
2013-03-16 10:47:00,36.8,35.8,29.59,NNE,20,0.0,0.0,96,0.00,,,0.00,VWS V14.01,2013-03-16 14:47:00,
2013-03-16 10:57:00,37.0,36.0,29.59,North,356,0.0,0.0,96,0.00,,,0.00,VWS V14.01,2013-03-16 14:57:00,
2013-03-16 11:02:00,37.0,36.0,29.59,NNW,347,0.0,0.0,96,0.00,,,0.00,VWS V14.01,2013-03-16 15:02:00,
2013-03-16 11:17:00,36.9,35.9,29.62,NNW,342,0.0,0.0,96,0.00,,,0.00,VWS V14.01,2013-03-16 15:17:00,
2013-03-16 11:27:00,36.8,35.8,29.62,NNW,346,0.0,0.0,96,0.00,,,0.00,VWS V14.01,2013-03-16 15:27:00,
2013-03-16 11:32:00,36.9,35.9,29.62,NNW,344,0.0,0.0,96,0.00,,,0.00,VWS V14.01,2013-03-16 15:32:00,
2013-03-16 11:42:00,36.9,35.9,29.62,North,353,0.0,0.0,96,0.00,,,0.00,VWS V14.01,2013-03-16 15:42:00,
2013-03-16 11:47:00,36.9,35.9,29.63,NNW,339,0.0,0.0,96,0.00,,,0.00,VWS V14.01,2013-03-16 15:47:00,
2013-03-16 11:57:00,36.9,35.9,29.63,North,356,0.0,0.0,96,0.00,,,0.00,VWS V14.01,2013-03-16 15:57:00,
2013-03-16 12:02:00,36.8,35.5,29.64,North,0,0.0,0.0,95,0.00,,,0.00,VWS V14.01,2013-03-16 16:02:00,
2013-03-16 12:12:00,36.8,35.5,29.64,NNW,347,0.0,0.0,95,0.00,,,0.00,VWS V14.01,2013-03-16 16:12:00,
2013-03-16 12:17:00,36.9,35.6,29.65,North,354,0.0,0.0,95,0.00,,,0.00,VWS V14.01,2013-03-16 16:17:00,
2013-03-16 12:22:00,36.9,35.6,29.65,NNW,343,0.0,0.0,95,0.00,,,0.00,VWS V14.01,2013-03-16 16:22:00,
2013-03-16 12:27:00,36.9,35.6,29.65,North,352,0.0,0.0,95,0.00,,,0.00,VWS V14.01,2013-03-16 16:27:00,
2013-03-16 12:37:00,37.2,35.9,29.66,NNW,347,0.0,0.0,95,0.00,,,0.00,VWS V14.01,2013-03-16 16:37:00,
2013-03-16 12:47:00,37.0,35.4,29.66,NNW,342,0.0,0.0,94,0.00,,,0.00,VWS V14.01,2013-03-16 16:47:00,
2013-03-16 12:52:00,36.9,35.3,29.66,NW,311,0.0,0.0,94,0.00,,,0.00,VWS V14.01,2013-03-16 16:52:00,
2013-03-16 12:57:00,36.9,35.3,29.66,North,357,0.0,0.0,94,0.00,,,0.00,VWS V14.01,2013-03-16 16:57:00,
2013-03-16 13:07:00,36.6,35.0,29.67,North,359,0.0,0.0,94,0.00,,,0.00,VWS V14.01,2013-03-16 17:07:00,
2013-03-16 13:17:00,36.5,34.9,29.68,NNW,344,0.0,0.0,94,0.00,,,0.00,VWS V14.01,2013-03-16 17:17:00,
2013-03-16 13:27:00,36.6,35.0,29.68,NNE,31,0.0,0.0,94,0.00,,,0.00,VWS V14.01,2013-03-16 17:27:00,
2013-03-16 13:32:00,36.3,34.7,29.69,NE,40,0.0,0.0,94,0.00,,,0.00,VWS V14.01,2013-03-16 17:32:00,
2013-03-16 13:42:00,36.2,34.6,29.69,NNE,14,0.0,0.0,94,0.00,,OVC006,0.00,VWS V14.01,2013-03-16 17:42:00,
2013-03-16 13:47:00,35.9,34.3,29.70,NNW,339,0.0,0.0,94,0.00,,OVC006,0.00,VWS V14.01,2013-03-16 17:47:00,
2013-03-16 13:52:00,35.9,34.3,29.70,North,357,0.0,0.0,94,0.00,,OVC006,0.00,VWS V14.01,2013-03-16 17:52:00,
2013-03-16 13:57:00,35.6,33.8,29.70,NNW,347,0.0,0.0,93,0.00,,OVC006,0.00,VWS V14.01,2013-03-16 17:57:00,
2013-03-16 14:02:00,35.9,34.1,29.70,North,11,0.0,0.0,93,0.00,,OVC006,0.00,VWS V14.01,2013-03-16 18:02:00,
2013-03-16 14:07:00,35.6,33.8,29.70,North,352,0.0,0.0,93,0.00,,OVC006,0.00,VWS V14.01,2013-03-16 18:07:00,
2013-03-16 14:17:00,35.5,33.4,29.72,NNW,346,0.0,0.0,92,0.00,,OVC006,0.00,VWS V14.01,2013-03-16 18:17:00,
2013-03-16 14:22:00,35.5,33.4,29.72,North,0,0.0,0.0,92,0.00,,OVC006,0.00,VWS V14.01,2013-03-16 18:22:00,
2013-03-16 14:27:00,35.5,33.1,29.72,NW,322,0.0,0.0,91,0.00,,OVC006,0.00,VWS V14.01,2013-03-16 18:27:00,
2013-03-16 14:32:00,35.3,32.7,29.72,NNW,346,0.0,0.0,90,0.00,,OVC006,0.00,VWS V14.01,2013-03-16 18:32:00,
2013-03-16 14:42:00,35.6,32.7,29.72,NNE,25,0.0,0.0,89,0.00,,OVC008,0.00,VWS V14.01,2013-03-16 18:42:00,
2013-03-16 14:47:00,35.9,32.7,29.73,North,0,0.0,0.0,88,0.00,,OVC008,0.00,VWS V14.01,2013-03-16 18:47:00,
2013-03-16 14:57:00,35.5,31.7,29.73,NNW,339,0.0,0.0,86,0.00,,OVC008,0.00,VWS V14.01,2013-03-16 18:57:00,
2013-03-16 15:07:00,35.3,31.0,29.74,North,356,0.0,0.0,84,0.00,,OVC008,0.00,VWS V14.01,2013-03-16 19:07:00,
2013-03-16 15:12:00,35.3,31.0,29.74,North,0,0.0,0.0,84,0.00,,OVC008,0.00,VWS V14.01,2013-03-16 19:12:00,
2013-03-16 15:17:00,35.2,30.6,29.74,North,359,0.0,0.0,83,0.00,,OVC008,0.00,VWS V14.01,2013-03-16 19:17:00,
2013-03-16 15:22:00,35.2,30.6,29.74,North,0,0.0,0.0,83,0.00,,OVC008,0.00,VWS V14.01,2013-03-16 19:22:00,
2013-03-16 15:27:00,34.9,30.0,29.74,North,354,0.0,0.0,82,0.00,,OVC008,0.00,VWS V14.01,2013-03-16 19:27:00,
2013-03-16 15:32:00,34.7,29.8,29.74,NNW,337,0.0,0.0,82,0.00,,OVC008,0.00,VWS V14.01,2013-03-16 19:32:00,
2013-03-16 15:37:00,34.6,29.7,29.74,NNW,347,0.0,0.0,82,0.00,,OVC008,0.00,VWS V14.01,2013-03-16 19:37:00,
2013-03-16 15:42:00,34.6,29.7,29.74,NNE,16,0.0,0.0,82,0.00,,OVC012,0.00,VWS V14.01,2013-03-16 19:42:00,
2013-03-16 15:52:00,34.4,29.5,29.75,NNE,24,0.0,0.0,82,0.00,,OVC012,0.00,VWS V14.01,2013-03-16 19:52:00,
2013-03-16 15:57:00,34.4,29.5,29.75,NNW,335,0.0,0.0,82,0.00,,OVC012,0.00,VWS V14.01,2013-03-16 19:57:00,
2013-03-16 16:12:00,34.1,29.5,29.75,North,4,0.0,0.0,83,0.00,,OVC012,0.00,VWS V14.01,2013-03-16 20:12:00,
2013-03-16 16:17:00,34.0,29.4,29.76,NE,35,0.0,0.0,83,0.00,,OVC012,0.00,VWS V14.01,2013-03-16 20:17:00,
2013-03-16 16:27:00,34.0,29.1,29.76,NNE,17,0.0,0.0,82,0.00,,OVC012,0.00,VWS V14.01,2013-03-16 20:27:00,
2013-03-16 16:32:00,34.1,29.2,29.77,NNW,347,0.0,0.0,82,0.00,,OVC012,0.00,VWS V14.01,2013-03-16 20:32:00,
2013-03-16 16:42:00,34.0,29.1,29.77,NNE,24,0.0,0.0,82,0.00,,OVC016,0.00,VWS V14.01,2013-03-16 20:42:00,
2013-03-16 16:47:00,34.0,29.1,29.78,North,11,0.0,0.0,82,0.00,,OVC016,0.00,VWS V14.01,2013-03-16 20:47:00,
2013-03-16 16:52:00,33.8,28.6,29.78,NNE,25,0.0,0.0,81,0.00,,OVC016,0.00,VWS V14.01,2013-03-16 20:52:00,
2013-03-16 16:57:00,34.0,28.8,29.78,NNE,24,0.0,0.0,81,0.00,,OVC016,0.00,VWS V14.01,2013-03-16 20:57:00,
2013-03-16 17:02:00,34.0,28.8,29.79,North,0,0.0,0.0,81,0.00,,OVC016,0.00,VWS V14.01,2013-03-16 21:02:00,
2013-03-16 17:12:00,34.0,28.5,29.79,North,10,0.0,0.0,80,0.00,,OVC016,0.00,VWS V14.01,2013-03-16 21:12:00,
2013-03-16 17:17:00,34.0,28.2,29.79,NNE,14,0.0,0.0,79,0.00,,OVC016,0.00,VWS V14.01,2013-03-16 21:17:00,
2013-03-16 17:22:00,34.1,28.3,29.79,NNE,28,0.0,0.0,79,0.00,,OVC016,0.00,VWS V14.01,2013-03-16 21:22:00,
2013-03-16 17:32:00,34.1,27.7,29.80,North,10,0.0,0.0,77,0.00,,OVC016,0.00,VWS V14.01,2013-03-16 21:32:00,
2013-03-16 17:37:00,34.1,28.0,29.80,North,359,0.0,0.0,78,0.00,,OVC016,0.00,VWS V14.01,2013-03-16 21:37:00,
2013-03-16 17:42:00,34.1,28.0,29.80,North,0,0.0,0.0,78,0.00,,OVC018,0.00,VWS V14.01,2013-03-16 21:42:00,
2013-03-16 17:47:00,34.1,28.0,29.80,NNE,17,0.0,0.0,78,0.00,,OVC018,0.00,VWS V14.01,2013-03-16 21:47:00,
2013-03-16 17:52:00,34.1,28.0,29.80,North,356,0.0,0.0,78,0.00,,OVC018,0.00,VWS V14.01,2013-03-16 21:52:00,
2013-03-16 17:57:00,33.7,27.3,29.80,NNW,346,0.0,0.0,77,0.00,,OVC018,0.00,VWS V14.01,2013-03-16 21:57:00,
2013-03-16 18:02:00,33.5,27.4,29.80,North,353,0.0,0.0,78,0.00,,OVC018,0.00,VWS V14.01,2013-03-16 22:02:00,
2013-03-16 18:12:00,33.5,27.4,29.80,NNW,333,0.0,0.0,78,0.00,,OVC018,0.00,VWS V14.01,2013-03-16 22:12:00,
2013-03-16 18:22:00,33.5,27.1,29.81,NNW,330,0.0,0.0,77,0.00,,OVC018,0.00,VWS V14.01,2013-03-16 22:22:00,
2013-03-16 18:32:00,33.5,27.1,29.81,NNW,333,0.0,0.0,77,0.00,,OVC018,0.00,VWS V14.01,2013-03-16 22:32:00,
2013-03-16 18:37:00,33.4,26.7,29.81,North,357,0.0,0.0,76,0.00,,OVC018,0.00,VWS V14.01,2013-03-16 22:37:00,
2013-03-16 18:47:00,33.2,26.5,29.82,North,0,0.0,0.0,76,0.00,,OVC018,0.00,VWS V14.01,2013-03-16 22:47:00,
2013-03-16 18:52:00,33.1,26.4,29.82,NNW,346,0.0,0.0,76,0.00,,OVC018,0.00,VWS V14.01,2013-03-16 22:52:00,
2013-03-16 19:07:00,32.8,25.8,29.83,NW,319,0.0,0.0,75,0.00,,OVC018,0.00,VWS V14.01,2013-03-16 23:07:00,
2013-03-16 19:12:00,32.8,25.8,29.83,NW,315,0.0,0.0,75,0.00,,OVC018,0.00,VWS V14.01,2013-03-16 23:12:00,
2013-03-16 19:22:00,32.8,25.8,29.83,NW,318,0.0,0.0,75,0.00,,OVC018,0.00,VWS V14.01,2013-03-16 23:22:00,
2013-03-16 19:27:00,32.8,25.8,29.83,NNW,328,0.0,0.0,75,0.00,,OVC018,0.00,VWS V14.01,2013-03-16 23:27:00,
2013-03-16 19:37:00,32.7,25.3,29.84,WNW,299,0.0,0.0,74,0.00,,OVC018,0.00,VWS V14.01,2013-03-16 23:37:00,
2013-03-16 19:42:00,32.7,25.3,29.84,NNW,339,0.0,0.0,74,0.00,,OVC018,0.00,VWS V14.01,2013-03-16 23:42:00,
2013-03-16 19:47:00,32.5,25.1,29.85,WNW,298,0.0,0.0,74,0.00,,OVC018,0.00,VWS V14.01,2013-03-16 23:47:00,
2013-03-16 19:57:00,32.4,25.0,29.85,NW,326,0.0,0.0,74,0.00,,OVC018,0.00,VWS V14.01,2013-03-16 23:57:00,
2013-03-16 20:02:00,32.2,24.9,29.85,NNW,330,0.0,0.0,74,0.00,,OVC018,0.00,VWS V14.01,2013-03-17 00:02:00,
2013-03-16 20:07:00,32.1,24.8,29.85,NW,322,0.0,0.0,74,0.00,,OVC018,0.00,VWS V14.01,2013-03-17 00:07:00,
2013-03-16 20:12:00,32.1,24.8,29.85,NNW,333,0.0,0.0,74,0.00,,OVC018,0.00,VWS V14.01,2013-03-17 00:12:00,
2013-03-16 20:17:00,31.9,24.6,29.85,North,359,0.0,0.0,74,0.00,,OVC018,0.00,VWS V14.01,2013-03-17 00:17:00,
2013-03-16 20:22:00,31.9,24.6,29.85,NNW,336,0.0,0.0,74,0.00,,OVC018,0.00,VWS V14.01,2013-03-17 00:22:00,
2013-03-16 20:27:00,31.8,24.8,29.85,North,356,0.0,0.0,75,0.00,,OVC018,0.00,VWS V14.01,2013-03-17 00:27:00,
2013-03-16 20:37:00,31.6,24.6,29.85,NNW,344,0.0,0.0,75,0.00,,OVC018,0.00,VWS V14.01,2013-03-17 00:37:00,
2013-03-16 20:42:00,31.5,24.5,29.85,NNW,340,0.0,0.0,75,0.00,,OVC018,0.00,VWS V14.01,2013-03-17 00:42:00,
2013-03-16 20:47:00,31.5,24.5,29.86,NNW,328,0.0,0.0,75,0.00,,OVC018,0.00,VWS V14.01,2013-03-17 00:47:00,
2013-03-16 20:57:00,31.3,24.3,29.86,NNW,344,0.0,0.0,75,0.00,,OVC018,0.00,VWS V14.01,2013-03-17 00:57:00,
2013-03-16 21:02:00,31.2,24.2,29.86,NNW,328,0.0,0.0,75,0.00,,OVC018,0.00,VWS V14.01,2013-03-17 01:02:00,
2013-03-16 21:07:00,31.0,24.3,29.86,NNW,333,0.0,0.0,76,0.00,,OVC018,0.00,VWS V14.01,2013-03-17 01:07:00,
2013-03-16 21:17:00,30.7,24.0,29.86,North,7,0.0,0.0,76,0.00,,OVC018,0.00,VWS V14.01,2013-03-17 01:17:00,
2013-03-16 21:22:00,30.6,23.6,29.86,NNW,347,0.0,0.0,75,0.00,,OVC018,0.00,VWS V14.01,2013-03-17 01:22:00,
2013-03-16 21:32:00,30.6,24.0,29.87,North,359,0.0,0.0,76,0.00,,OVC018,0.00,VWS V14.01,2013-03-17 01:32:00,
2013-03-16 21:42:00,30.3,23.7,29.87,North,0,0.0,0.0,76,0.00,,OVC020,0.00,VWS V14.01,2013-03-17 01:42:00,
2013-03-16 21:47:00,30.1,23.1,29.87,NNW,344,0.0,0.0,75,0.00,,OVC020,0.00,VWS V14.01,2013-03-17 01:47:00,
2013-03-16 21:52:00,30.0,23.0,29.87,NNW,347,0.0,0.0,75,0.00,,OVC020,0.00,VWS V14.01,2013-03-17 01:52:00,
2013-03-16 22:02:00,30.0,23.0,29.89,NW,312,0.0,0.0,75,0.00,,OVC020,0.00,VWS V14.01,2013-03-17 02:02:00,
2013-03-16 22:07:00,30.0,23.0,29.89,NNW,328,0.0,0.0,75,0.00,,OVC020,0.00,VWS V14.01,2013-03-17 02:07:00,
2013-03-16 22:17:00,30.0,23.0,29.90,NW,325,0.0,0.0,75,0.00,,OVC020,0.00,VWS V14.01,2013-03-17 02:17:00,
2013-03-16 22:22:00,30.0,23.0,29.90,NW,322,0.0,0.0,75,0.00,,OVC020,0.00,VWS V14.01,2013-03-17 02:22:00,
2013-03-16 22:32:00,30.0,23.0,29.91,NNW,329,0.0,0.0,75,0.00,,OVC020,0.00,VWS V14.01,2013-03-17 02:32:00,
2013-03-16 22:42:00,29.8,22.9,29.91,North,349,0.0,0.0,75,0.00,,OVC024,0.00,VWS V14.01,2013-03-17 02:42:00,
2013-03-16 22:47:00,29.7,22.8,29.92,West,263,0.0,0.0,75,0.00,,OVC024,0.00,VWS V14.01,2013-03-17 02:47:00,
2013-03-16 22:52:00,29.5,22.2,29.92,NNW,332,0.0,0.0,74,0.00,,OVC024,0.00,VWS V14.01,2013-03-17 02:52:00,
2013-03-16 22:57:00,29.4,22.1,29.92,NW,322,0.0,0.0,74,0.00,,OVC024,0.00,VWS V14.01,2013-03-17 02:57:00,
2013-03-16 23:02:00,29.3,22.1,29.92,NW,318,0.0,0.0,74,0.00,,OVC024,0.00,VWS V14.01,2013-03-17 03:02:00,
2013-03-16 23:12:00,29.3,22.1,29.92,WNW,295,0.0,0.0,74,0.00,,OVC024,0.00,VWS V14.01,2013-03-17 03:12:00,
2013-03-16 23:17:00,29.1,21.9,29.93,WNW,302,0.0,0.0,74,0.00,,OVC024,0.00,VWS V14.01,2013-03-17 03:17:00,
2013-03-16 23:22:00,29.1,21.5,29.93,NW,320,0.0,0.0,73,0.00,,OVC024,0.00,VWS V14.01,2013-03-17 03:22:00,
2013-03-16 23:32:00,29.1,21.5,29.93,WNW,302,0.0,0.0,73,0.00,,OVC024,0.00,VWS V14.01,2013-03-17 03:32:00,
2013-03-16 23:37:00,29.3,22.1,29.93,NNW,343,0.0,0.0,74,0.00,,OVC024,0.00,VWS V14.01,2013-03-17 03:37:00,
2013-03-16 23:42:00,29.1,21.9,29.93,NW,322,0.0,0.0,74,0.00,,OVC024,0.00,VWS V14.01,2013-03-17 03:42:00,
2013-03-16 23:47:00,29.1,21.9,29.93,NNW,328,0.0,0.0,74,0.00,,OVC024,0.00,VWS V14.01,2013-03-17 03:47:00,
2013-03-16 23:57:00,29.1,21.9,29.93,NNW,328,0.0,0.0,74,0.00,,OVC024,0.00,VWS V14.01,2013-03-17 03:57:00,